ENY4108 KMIA-MYBS
Flight info
| Callsign | ENY4108 |
|---|---|
| Flight time | 0h 23m |
| Altitude | 13000 |
| Route | KLADA2 KLADA |
| Aircraft | E75L/M-SDE3GILORVW/S |
Departure
| Time | 2026-05-05 15:17 |
|---|---|
| Airport | Miami International Airport (KMIA) |
Arrival
| Time | 2026-05-05 15:40 |
|---|---|
| Airport | South Bimini Airport (MYBS) |
| Time | Latitude | Longitude | Altitude | Speed | Heading |
|---|---|---|---|---|---|
| 2026-05-05 15:04 | 25.79722 | -80.28494 | 22 ft | 0 kts | 4° |
| 2026-05-05 15:10 | 25.79705 | -80.28495 | 13 ft | 4 kts | 359° |
| 2026-05-05 15:10 | 25.79679 | -80.28490 | 14 ft | 4 kts | 331° |
| 2026-05-05 15:10 | 25.79669 | -80.28472 | 13 ft | 1 kts | 263° |
| 2026-05-05 15:11 | 25.79669 | -80.28471 | 13 ft | 3 kts | 263° |
| 2026-05-05 15:12 | 25.79669 | -80.28472 | 13 ft | 1 kts | 262° |
| 2026-05-05 15:12 | 25.79666 | -80.28494 | 13 ft | 0 kts | 266° |
| 2026-05-05 15:13 | 25.79666 | -80.28497 | 13 ft | 1 kts | 266° |
| 2026-05-05 15:13 | 25.79665 | -80.28506 | 13 ft | 3 kts | 260° |
| 2026-05-05 15:13 | 25.79657 | -80.28549 | 13 ft | 8 kts | 260° |
| 2026-05-05 15:13 | 25.79648 | -80.28631 | 13 ft | 13 kts | 266° |
| 2026-05-05 15:14 | 25.79643 | -80.28745 | 13 ft | 16 kts | 269° |
| 2026-05-05 15:14 | 25.79652 | -80.28863 | 13 ft | 17 kts | 277° |
| 2026-05-05 15:14 | 25.79686 | -80.28977 | 13 ft | 15 kts | 293° |
| 2026-05-05 15:14 | 25.79734 | -80.29080 | 13 ft | 15 kts | 326° |
| 2026-05-05 15:15 | 25.79840 | -80.29096 | 13 ft | 16 kts | 357° |
| 2026-05-05 15:15 | 25.79915 | -80.29155 | 13 ft | 14 kts | 281° |
| 2026-05-05 15:15 | 25.79915 | -80.29269 | 13 ft | 17 kts | 268° |
| 2026-05-05 15:15 | 25.79907 | -80.29427 | 13 ft | 24 kts | 267° |
| 2026-05-05 15:16 | 25.79898 | -80.29629 | 12 ft | 21 kts | 270° |
| 2026-05-05 15:16 | 25.79970 | -80.29760 | 14 ft | 25 kts | 352° |
| 2026-05-05 15:16 | 25.80095 | -80.29685 | 11 ft | 23 kts | 88° |
| 2026-05-05 15:16 | 25.80104 | -80.29376 | 13 ft | 76 kts | 87° |
| 2026-05-05 15:17 | 25.80139 | -80.28505 | 19 ft | 147 kts | 88° |
| 2026-05-05 15:17 | 25.80185 | -80.27264 | 636 ft | 165 kts | 89° |
| 2026-05-05 15:17 | 25.79896 | -80.25988 | 1483 ft | 179 kts | 109° |
| 2026-05-05 15:17 | 25.79656 | -80.24513 | 1740 ft | 205 kts | 89° |
| 2026-05-05 15:18 | 25.79401 | -80.22956 | 1681 ft | 207 kts | 107° |
| 2026-05-05 15:18 | 25.78820 | -80.21524 | 2618 ft | 197 kts | 118° |
| 2026-05-05 15:18 | 25.78092 | -80.20186 | 3470 ft | 217 kts | 122° |
| 2026-05-05 15:18 | 25.77226 | -80.18723 | 4269 ft | 236 kts | 123° |
| 2026-05-05 15:19 | 25.76354 | -80.17106 | 5062 ft | 252 kts | 120° |
| 2026-05-05 15:19 | 25.75481 | -80.15350 | 5864 ft | 267 kts | 120° |
| 2026-05-05 15:19 | 25.74569 | -80.13464 | 6674 ft | 281 kts | 118° |
| 2026-05-05 15:19 | 25.73689 | -80.11520 | 7499 ft | 290 kts | 117° |
| 2026-05-05 15:20 | 25.72862 | -80.09447 | 8355 ft | 297 kts | 112° |
| 2026-05-05 15:20 | 25.72122 | -80.07278 | 9195 ft | 304 kts | 111° |
| 2026-05-05 15:20 | 25.71381 | -80.05047 | 9991 ft | 311 kts | 111° |
| 2026-05-05 15:20 | 25.70617 | -80.02737 | 10488 ft | 327 kts | 111° |
| 2026-05-05 15:21 | 25.69817 | -80.00322 | 10986 ft | 340 kts | 111° |
| 2026-05-05 15:21 | 25.68993 | -79.97836 | 11672 ft | 346 kts | 111° |
| 2026-05-05 15:21 | 25.68158 | -79.95316 | 12354 ft | 351 kts | 111° |
| 2026-05-05 15:21 | 25.67315 | -79.92776 | 12776 ft | 344 kts | 111° |
| 2026-05-05 15:22 | 25.66502 | -79.90327 | 12894 ft | 343 kts | 111° |
| 2026-05-05 15:22 | 25.65653 | -79.87780 | 12960 ft | 358 kts | 111° |
| 2026-05-05 15:22 | 25.64790 | -79.85181 | 12989 ft | 359 kts | 111° |
| 2026-05-05 15:22 | 25.63941 | -79.82629 | 13000 ft | 357 kts | 111° |
| 2026-05-05 15:23 | 25.63080 | -79.80046 | 13005 ft | 357 kts | 111° |
| 2026-05-05 15:23 | 25.62218 | -79.77457 | 12999 ft | 357 kts | 111° |
| 2026-05-05 15:23 | 25.61357 | -79.74878 | 12997 ft | 357 kts | 111° |
| 2026-05-05 15:23 | 25.60780 | -79.72194 | 12989 ft | 359 kts | 93° |
| 2026-05-05 15:24 | 25.60835 | -79.69430 | 13010 ft | 359 kts | 86° |
| 2026-05-05 15:24 | 25.61029 | -79.66674 | 13004 ft | 359 kts | 84° |
| 2026-05-05 15:24 | 25.61262 | -79.63918 | 12994 ft | 359 kts | 84° |
| 2026-05-05 15:24 | 25.61456 | -79.61165 | 12884 ft | 360 kts | 88° |
| 2026-05-05 15:25 | 25.61495 | -79.58388 | 12582 ft | 361 kts | 89° |
| 2026-05-05 15:25 | 25.61514 | -79.55576 | 12290 ft | 366 kts | 90° |
| 2026-05-05 15:25 | 25.61524 | -79.52757 | 11998 ft | 366 kts | 90° |
| 2026-05-05 15:25 | 25.61532 | -79.49981 | 11712 ft | 363 kts | 90° |
| 2026-05-05 15:26 | 25.61540 | -79.47191 | 11423 ft | 361 kts | 90° |
| 2026-05-05 15:26 | 25.61549 | -79.44456 | 11125 ft | 349 kts | 90° |
| 2026-05-05 15:26 | 25.61557 | -79.41794 | 10654 ft | 344 kts | 90° |
| 2026-05-05 15:26 | 25.61565 | -79.39149 | 10187 ft | 341 kts | 90° |
| 2026-05-05 15:27 | 25.61571 | -79.36532 | 9697 ft | 338 kts | 90° |
| 2026-05-05 15:27 | 25.61576 | -79.33934 | 9186 ft | 335 kts | 90° |
| 2026-05-05 15:27 | 25.61582 | -79.31363 | 8683 ft | 332 kts | 90° |
| 2026-05-05 15:27 | 25.61588 | -79.28816 | 8191 ft | 328 kts | 90° |
| 2026-05-05 15:28 | 25.61597 | -79.26302 | 7701 ft | 319 kts | 89° |
| 2026-05-05 15:28 | 25.61876 | -79.23960 | 7194 ft | 297 kts | 82° |
| 2026-05-05 15:28 | 25.62061 | -79.21714 | 6702 ft | 289 kts | 86° |
| 2026-05-05 15:28 | 25.62167 | -79.19500 | 6210 ft | 287 kts | 87° |
| 2026-05-05 15:29 | 25.62243 | -79.17296 | 5713 ft | 284 kts | 88° |
| 2026-05-05 15:29 | 25.62308 | -79.15129 | 5227 ft | 281 kts | 88° |
| 2026-05-05 15:29 | 25.62365 | -79.13000 | 4754 ft | 278 kts | 88° |
| 2026-05-05 15:29 | 25.62422 | -79.10862 | 4254 ft | 274 kts | 88° |
| 2026-05-05 15:30 | 25.62477 | -79.08764 | 3761 ft | 272 kts | 88° |
| 2026-05-05 15:30 | 25.62532 | -79.06689 | 3287 ft | 267 kts | 88° |
| 2026-05-05 15:30 | 25.62588 | -79.04651 | 3107 ft | 264 kts | 88° |
| 2026-05-05 15:30 | 25.62649 | -79.02611 | 3047 ft | 265 kts | 88° |
| 2026-05-05 15:31 | 25.62713 | -79.00568 | 3014 ft | 265 kts | 88° |
| 2026-05-05 15:31 | 25.62778 | -78.98552 | 3004 ft | 265 kts | 88° |
| 2026-05-05 15:31 | 25.62844 | -78.96512 | 2995 ft | 265 kts | 88° |
| 2026-05-05 15:31 | 25.62909 | -78.94474 | 2994 ft | 265 kts | 88° |
| 2026-05-05 15:32 | 25.62976 | -78.92415 | 3001 ft | 265 kts | 88° |
| 2026-05-05 15:32 | 25.63321 | -78.90430 | 2993 ft | 265 kts | 64° |
| 2026-05-05 15:32 | 25.64521 | -78.88900 | 3005 ft | 266 kts | 32° |
| 2026-05-05 15:32 | 25.66231 | -78.88294 | 2986 ft | 247 kts | 360° |
| 2026-05-05 15:33 | 25.67795 | -78.88704 | 2971 ft | 224 kts | 337° |
| 2026-05-05 15:33 | 25.69206 | -78.89425 | 2976 ft | 223 kts | 333° |
| 2026-05-05 15:33 | 25.70584 | -78.90197 | 2989 ft | 224 kts | 332° |
| 2026-05-05 15:33 | 25.71971 | -78.91000 | 3005 ft | 225 kts | 332° |
| 2026-05-05 15:34 | 25.73352 | -78.91809 | 3004 ft | 224 kts | 332° |
| 2026-05-05 15:34 | 25.74730 | -78.92621 | 2997 ft | 224 kts | 331° |
| 2026-05-05 15:34 | 25.75882 | -78.93752 | 3003 ft | 224 kts | 298° |
| 2026-05-05 15:34 | 25.76199 | -78.95417 | 3022 ft | 224 kts | 261° |
| 2026-05-05 15:35 | 25.75546 | -78.96954 | 3038 ft | 223 kts | 228° |
| 2026-05-05 15:35 | 25.74483 | -78.98213 | 3040 ft | 224 kts | 225° |
| 2026-05-05 15:35 | 25.73402 | -78.99447 | 3031 ft | 223 kts | 226° |
| 2026-05-05 15:35 | 25.72358 | -79.00695 | 3020 ft | 223 kts | 228° |
| 2026-05-05 15:36 | 25.71355 | -79.02005 | 2998 ft | 223 kts | 231° |
| 2026-05-05 15:36 | 25.70414 | -79.03374 | 2993 ft | 223 kts | 234° |
| 2026-05-05 15:36 | 25.69543 | -79.04815 | 3013 ft | 225 kts | 238° |
| 2026-05-05 15:36 | 25.68958 | -79.06409 | 2994 ft | 223 kts | 257° |
| 2026-05-05 15:37 | 25.68742 | -79.08106 | 3004 ft | 223 kts | 266° |
| 2026-05-05 15:37 | 25.68728 | -79.09822 | 3004 ft | 223 kts | 271° |
| 2026-05-05 15:37 | 25.68840 | -79.11535 | 2985 ft | 223 kts | 278° |
| 2026-05-05 15:37 | 25.69095 | -79.13218 | 2855 ft | 215 kts | 280° |
| 2026-05-05 15:38 | 25.69361 | -79.14762 | 2814 ft | 194 kts | 281° |
| 2026-05-05 15:38 | 25.69620 | -79.16177 | 2606 ft | 179 kts | 282° |
| 2026-05-05 15:38 | 25.69849 | -79.17470 | 2295 ft | 168 kts | 278° |
| 2026-05-05 15:38 | 25.69963 | -79.18685 | 2135 ft | 144 kts | 274° |
| 2026-05-05 15:39 | 25.70044 | -79.19756 | 1826 ft | 142 kts | 273° |
| 2026-05-05 15:39 | 25.70088 | -79.20928 | 1442 ft | 152 kts | 272° |
| 2026-05-05 15:39 | 25.70064 | -79.22081 | 1075 ft | 146 kts | 268° |
| 2026-05-05 15:39 | 25.70037 | -79.23192 | 706 ft | 142 kts | 270° |
| 2026-05-05 15:40 | 25.69996 | -79.24264 | 379 ft | 137 kts | 271° |
| 2026-05-05 15:40 | 25.69992 | -79.25293 | 124 ft | 129 kts | 272° |
| 2026-05-05 15:40 | 25.69997 | -79.26204 | 32 ft | 91 kts | 270° |
| 2026-05-05 15:40 | 25.69995 | -79.26666 | 31 ft | 48 kts | 273° |
| 2026-05-05 15:41 | 25.69994 | -79.26886 | 34 ft | 16 kts | 270° |
| 2026-05-05 15:41 | 25.69999 | -79.26989 | 34 ft | 10 kts | 281° |
| 2026-05-05 15:41 | 25.70040 | -79.27025 | 35 ft | 7 kts | 352° |
| 2026-05-05 15:41 | 25.70060 | -79.27029 | 35 ft | 0 kts | 339° |
| 2026-05-05 15:42 | 25.70067 | -79.27033 | 35 ft | 3 kts | 321° |
| 2026-05-05 15:42 | 25.70083 | -79.27102 | 36 ft | 17 kts | 276° |
| 2026-05-05 15:42 | 25.70084 | -79.27183 | 37 ft | 7 kts | 274° |
| 2026-05-05 15:43 | 25.70086 | -79.27186 | 37 ft | 0 kts | 298° |
| 2026-05-05 15:43 | 25.70086 | -79.27188 | 37 ft | 2 kts | 301° |
| 2026-05-05 15:43 | 25.70112 | -79.27191 | 37 ft | 2 kts | 44° |
| 2026-05-05 15:43 | 25.70114 | -79.27187 | 37 ft | 0 kts | 63° |